createdAt,value
2022-09-24T00:00:31.819Z,56314.08
2022-09-24T00:01:34.824Z,56314.08
2022-09-24T00:02:37.780Z,56309.07
2022-09-24T00:03:40.713Z,56265.95
2022-09-24T00:04:43.482Z,56169.67
2022-09-24T00:05:50.213Z,56173.68
2022-09-24T00:06:53.541Z,56211.79
2022-09-24T00:07:56.721Z,56225.83
2022-09-24T00:08:59.860Z,56404.34
2022-09-24T00:10:02.782Z,56479.56
2022-09-24T00:11:06.673Z,56452.48
2022-09-24T00:12:09.976Z,56506.64
2022-09-24T00:13:13.151Z,56327.12
2022-09-24T00:14:16.030Z,56301.05
2022-09-24T00:15:19.094Z,56284.00
2022-09-24T00:16:22.379Z,56318.09
2022-09-24T00:17:25.257Z,56337.15
2022-09-24T00:18:32.130Z,56264.94
2022-09-24T00:19:35.097Z,56257.92
2022-09-24T00:20:42.273Z,56267.95
2022-09-24T00:21:44.946Z,56337.15
2022-09-24T00:22:49.059Z,56338.15
2022-09-24T00:23:53.062Z,56322.11
2022-09-24T00:24:56.443Z,56391.30
2022-09-24T00:25:59.719Z,56353.20
2022-09-24T00:27:02.836Z,56331.13
2022-09-24T00:28:05.990Z,56244.89
2022-09-24T00:29:12.582Z,56215.80
2022-09-24T00:30:15.431Z,56175.69
2022-09-24T00:31:26.341Z,55180.99
2022-09-24T00:32:29.375Z,56099.47
2022-09-24T00:33:32.366Z,56075.41
2022-09-24T00:34:35.420Z,56096.46
2022-09-24T00:35:38.258Z,56201.76
2022-09-24T00:36:41.470Z,56370.24
2022-09-24T00:37:44.982Z,56441.45
2022-09-24T00:38:48.052Z,56424.40
2022-09-24T00:39:51.121Z,56550.77
2022-09-24T00:40:54.223Z,56449.48
2022-09-24T00:41:57.383Z,56406.35
2022-09-24T00:43:00.880Z,56592.89
2022-09-24T00:44:04.081Z,56514.66
2022-09-24T00:45:07.348Z,56534.72
2022-09-24T00:46:10.146Z,56559.80
2022-09-24T00:47:13.292Z,56647.05
2022-09-24T00:48:16.271Z,56548.76
2022-09-24T00:49:19.350Z,56505.64
2022-09-24T00:50:22.445Z,56564.81
2022-09-24T00:51:25.199Z,56643.04
2022-09-24T00:52:28.301Z,56739.33
2022-09-24T00:53:31.169Z,56754.37
2022-09-24T00:54:34.045Z,57781.57
2022-09-24T00:55:37.258Z,57796.61
2022-09-24T00:56:40.939Z,57800.63
2022-09-24T00:57:43.780Z,57908.98
2022-09-24T00:58:47.264Z,58134.73
2022-09-24T00:59:50.625Z,58493.94
2022-09-24T01:00:53.702Z,59116.11
2022-09-24T01:01:57.071Z,59483.44
2022-09-24T01:03:00.409Z,59829.73
2022-09-24T01:04:03.599Z,60340.68
2022-09-24T01:05:07.396Z,60405.93
2022-09-24T01:06:10.668Z,60587.64
2022-09-24T01:07:13.947Z,60642.86
2022-09-24T01:08:16.929Z,60609.73
2022-09-24T01:09:19.922Z,60733.22
2022-09-24T01:10:23.002Z,60868.76
2022-09-24T01:11:25.865Z,60689.04
2022-09-24T01:12:32.926Z,60637.84
2022-09-24T01:13:40.016Z,60578.61
2022-09-24T01:14:41.866Z,60319.59
2022-09-24T01:15:44.990Z,60500.30
2022-09-24T01:16:48.363Z,60397.90
2022-09-24T01:17:51.947Z,60463.15
2022-09-24T01:18:54.587Z,60604.71
2022-09-24T01:19:57.871Z,60647.88
2022-09-24T01:21:01.863Z,60740.25
2022-09-24T01:22:10.094Z,60630.81
2022-09-24T01:23:13.042Z,60878.80
2022-09-24T01:24:15.911Z,61006.32
2022-09-24T01:25:19.198Z,60901.89
2022-09-24T01:26:22.085Z,60933.02
2022-09-24T01:27:31.840Z,61124.80
2022-09-24T01:28:35.401Z,61046.48
2022-09-24T01:29:38.591Z,61235.25
2022-09-24T01:30:43.112Z,61330.64
2022-09-24T01:31:46.238Z,61405.95
2022-09-24T01:32:51.822Z,61393.90
2022-09-24T01:33:57.456Z,61288.46
2022-09-24T01:35:16.791Z,61414.99
2022-09-24T01:36:20.000Z,61530.47
2022-09-24T01:37:22.988Z,61556.58
2022-09-24T01:38:26.074Z,61825.71
2022-09-24T01:39:29.026Z,61867.89
2022-09-24T01:40:31.942Z,61807.64
2022-09-24T01:41:34.690Z,61720.27
2022-09-24T01:42:37.653Z,61715.25
2022-09-24T01:43:41.669Z,61932.17
2022-09-24T01:44:48.633Z,61860.87
2022-09-24T01:45:52.164Z,61698.18
2022-09-24T01:46:55.794Z,61786.55
2022-09-24T01:47:59.096Z,61704.20
2022-09-24T01:49:03.834Z,61659.01
2022-09-24T01:50:07.003Z,61753.41
2022-09-24T01:52:39.786Z,61705.21
2022-09-24T01:53:47.917Z,61694.16
2022-09-24T01:54:50.965Z,61650.98
2022-09-24T01:55:54.566Z,61672.07
2022-09-24T01:58:25.859Z,61534.49
2022-09-24T01:59:28.969Z,61541.52
2022-09-24T02:00:32.217Z,61563.61
2022-09-24T02:01:35.695Z,61564.61
2022-09-24T02:02:49.185Z,61422.02
2022-09-24T02:03:52.560Z,61341.69
2022-09-24T02:04:55.851Z,61331.64
2022-09-24T02:05:59.023Z,61409.97
2022-09-24T02:07:02.144Z,61442.11
2022-09-24T02:08:05.391Z,61410.98
2022-09-24T02:09:09.083Z,61456.16
2022-09-24T02:10:12.482Z,61662.02
2022-09-24T02:11:15.854Z,61530.47
2022-09-24T02:12:18.646Z,61566.62
2022-09-24T02:13:22.234Z,61647.96
2022-09-24T02:14:25.410Z,61570.64
2022-09-24T02:15:32.272Z,61618.84
2022-09-24T02:16:33.089Z,61542.52
2022-09-24T02:17:37.006Z,61556.58
2022-09-24T02:18:44.164Z,61499.34
2022-09-24T02:19:48.885Z,61515.41
2022-09-24T02:20:52.690Z,61412.98
2022-09-24T02:21:56.237Z,61383.86
2022-09-24T02:23:02.142Z,61364.78
2022-09-24T02:24:07.593Z,61369.80
2022-09-24T02:26:31.236Z,61323.61
2022-09-24T02:27:34.105Z,61309.55
2022-09-24T02:28:37.413Z,61225.21
2022-09-24T02:29:40.983Z,61150.90
2022-09-24T02:30:44.673Z,61131.82
2022-09-24T02:31:48.176Z,61132.83
2022-09-24T02:32:52.061Z,61049.49
2022-09-24T02:33:55.428Z,60978.20
2022-09-24T02:35:07.745Z,60969.16
2022-09-24T02:36:11.127Z,60969.16
2022-09-24T02:37:14.013Z,60998.28
2022-09-24T02:38:17.454Z,60975.19
2022-09-24T02:39:20.263Z,60975.19
2022-09-24T02:40:27.649Z,61097.69
2022-09-24T02:41:30.649Z,61106.72
2022-09-24T02:42:33.282Z,61164.96
2022-09-24T02:43:37.308Z,61160.95
2022-09-24T02:44:44.057Z,61170.98
2022-09-24T02:45:47.127Z,61208.14
2022-09-24T02:46:50.991Z,61161.95
2022-09-24T02:48:01.276Z,61216.17
2022-09-24T02:49:08.663Z,61190.06
2022-09-24T02:50:12.361Z,61204.12
2022-09-24T02:51:15.748Z,61258.34
2022-09-24T02:52:18.421Z,61306.54
2022-09-24T02:53:21.322Z,61295.50
2022-09-24T02:54:24.580Z,61277.42
2022-09-24T02:55:29.508Z,61356.75
2022-09-24T02:56:32.569Z,61389.89
2022-09-24T02:57:35.651Z,61442.11
2022-09-24T02:58:39.141Z,61439.09
2022-09-24T02:59:43.352Z,61448.13
2022-09-24T03:00:48.116Z,61466.20
2022-09-24T03:01:51.379Z,61448.13
2022-09-24T03:02:55.537Z,61413.99
2022-09-24T03:03:59.045Z,61438.09
2022-09-24T03:05:02.232Z,61468.21
2022-09-24T03:06:05.417Z,61438.09
2022-09-24T03:07:08.613Z,61433.07
2022-09-24T03:08:16.377Z,61410.98
2022-09-24T03:09:19.672Z,61409.97
2022-09-24T03:10:22.642Z,61429.05
2022-09-24T03:11:25.928Z,61444.11
2022-09-24T03:12:28.916Z,61442.11
2022-09-24T03:13:46.432Z,61459.18
2022-09-24T03:14:49.706Z,61451.14
2022-09-24T03:15:52.748Z,61497.33
2022-09-24T03:16:56.372Z,61525.45
2022-09-24T03:18:06.402Z,61520.43
2022-09-24T03:19:21.787Z,61523.44
2022-09-24T03:20:25.263Z,61537.50
2022-09-24T03:21:31.215Z,61474.24
2022-09-24T03:22:34.312Z,61516.41
2022-09-24T03:23:37.581Z,61484.28
2022-09-24T03:24:40.759Z,61478.25
2022-09-24T03:25:43.649Z,61455.16
2022-09-24T03:26:46.849Z,61438.09
2022-09-24T03:28:00.614Z,61395.91
2022-09-24T03:29:03.946Z,61371.81
2022-09-24T03:30:09.333Z,61341.69
2022-09-24T03:31:12.715Z,61283.45
2022-09-24T03:32:15.442Z,61253.32
2022-09-24T03:33:18.610Z,61202.11
2022-09-24T03:34:21.479Z,61152.91
2022-09-24T03:35:24.772Z,61111.75
2022-09-24T03:36:27.538Z,61131.82
2022-09-24T03:37:30.736Z,61088.65
2022-09-24T03:38:34.541Z,61086.64
2022-09-24T03:39:38.214Z,61126.80
2022-09-24T03:40:51.469Z,61118.77
2022-09-24T03:41:54.711Z,61124.80
2022-09-24T03:42:58.109Z,61174.00
2022-09-24T03:44:01.286Z,61094.67
2022-09-24T03:45:04.460Z,61112.75
2022-09-24T03:46:09.797Z,61080.62
2022-09-24T03:47:12.880Z,61173.00
2022-09-24T03:48:16.159Z,61168.98
2022-09-24T03:49:19.244Z,61153.91
2022-09-24T03:50:22.420Z,61146.89
2022-09-24T03:51:25.528Z,61197.09
2022-09-24T03:52:32.341Z,61203.12
2022-09-24T03:53:35.966Z,61173.00
2022-09-24T03:54:39.152Z,61143.87
2022-09-24T03:55:42.338Z,61140.86
2022-09-24T03:56:46.229Z,61117.77
2022-09-24T03:57:49.415Z,61136.84
2022-09-24T03:58:52.400Z,61142.87
2022-09-24T03:59:55.668Z,61122.79
2022-09-24T04:00:58.850Z,61069.57
2022-09-24T04:02:03.706Z,61112.75
2022-09-24T04:03:10.239Z,61073.59
2022-09-24T04:04:15.761Z,61091.66
2022-09-24T04:05:21.012Z,61065.55
2022-09-24T04:06:27.665Z,61067.56
2022-09-24T04:07:30.541Z,61042.46
2022-09-24T04:08:34.054Z,61017.36
2022-09-24T04:09:36.689Z,60982.22
2022-09-24T04:10:39.668Z,60958.12
2022-09-24T04:11:42.943Z,60918.96
2022-09-24T04:12:46.252Z,60954.11
2022-09-24T04:13:49.448Z,60938.04
2022-09-24T04:14:55.476Z,60922.98
2022-09-24T04:15:58.718Z,60937.04
2022-09-24T04:17:02.134Z,60895.87
2022-09-24T04:18:05.119Z,60859.73
2022-09-24T04:19:07.989Z,60845.67
2022-09-24T04:20:11.587Z,60703.10
2022-09-24T04:21:14.566Z,60490.26
2022-09-24T04:22:17.335Z,60332.64
2022-09-24T04:23:20.306Z,60030.48
2022-09-24T04:24:23.182Z,59770.50
2022-09-24T04:25:26.164Z,59372.04
2022-09-24T04:26:29.356Z,59006.72
2022-09-24T04:27:32.214Z,58700.65
2022-09-24T04:28:34.994Z,58449.79
2022-09-24T04:29:37.970Z,58128.71
2022-09-24T04:30:40.852Z,57812.66
2022-09-24T04:31:43.800Z,57607.00
2022-09-24T04:32:46.703Z,57313.07
2022-09-24T04:33:49.978Z,56711.24
2022-09-24T04:34:53.274Z,56538.73
2022-09-24T04:35:56.648Z,56409.36
2022-09-24T04:36:59.833Z,56299.04
2022-09-24T04:38:02.904Z,56155.63
2022-09-24T04:39:05.681Z,56065.38
2022-09-24T04:40:08.708Z,55922.98
2022-09-24T04:41:12.042Z,55922.98
2022-09-24T04:42:15.428Z,55922.98
2022-09-24T04:43:18.407Z,55891.89
2022-09-24T04:44:21.455Z,55851.79
2022-09-24T04:45:24.582Z,55920.97
2022-09-24T04:46:27.632Z,55873.84
2022-09-24T04:47:30.414Z,55888.89
2022-09-24T04:48:33.406Z,55875.85
2022-09-24T04:49:36.304Z,55873.84
2022-09-24T04:50:43.403Z,55874.85
2022-09-24T04:51:43.659Z,55849.78
2022-09-24T04:52:46.753Z,55868.83
2022-09-24T04:53:49.920Z,55844.76
2022-09-24T04:54:53.000Z,55850.78
2022-09-24T04:55:56.387Z,55818.69
2022-09-24T04:57:00.809Z,55858.80
2022-09-24T04:58:03.882Z,55864.82
2022-09-24T04:59:07.223Z,55865.82
2022-09-24T05:00:10.151Z,55879.86
2022-09-24T05:01:13.164Z,55876.85
2022-09-24T05:02:16.413Z,55903.93
2022-09-24T05:03:19.788Z,55914.96
2022-09-24T05:04:23.085Z,55949.05
2022-09-24T05:05:26.057Z,55969.11
2022-09-24T05:06:28.919Z,55995.18
2022-09-24T05:07:31.903Z,56027.27
2022-09-24T05:08:35.187Z,56062.37
2022-09-24T05:09:37.846Z,56079.42
2022-09-24T05:10:41.443Z,56118.53
2022-09-24T05:11:44.635Z,56167.66
2022-09-24T05:12:47.804Z,56186.72
2022-09-24T05:13:51.297Z,56180.70
2022-09-24T05:14:54.904Z,56219.81
2022-09-24T05:15:58.230Z,56233.85
2022-09-24T05:17:01.784Z,56310.07
2022-09-24T05:18:04.952Z,56362.22
2022-09-24T05:19:08.024Z,56408.36
2022-09-24T05:20:11.509Z,56467.53
2022-09-24T05:21:14.692Z,56521.68
2022-09-24T05:22:17.571Z,56675.14
2022-09-24T05:23:20.749Z,57361.23
2022-09-24T05:24:23.525Z,57445.49
2022-09-24T05:25:27.018Z,57455.52
2022-09-24T05:26:30.090Z,57518.72
2022-09-24T05:27:37.424Z,57557.85
2022-09-24T05:28:40.871Z,57649.14
2022-09-24T05:29:44.175Z,57648.14
2022-09-24T05:30:47.218Z,57717.36
2022-09-24T05:31:50.688Z,57805.64
2022-09-24T05:32:53.636Z,57961.15
2022-09-24T05:33:58.213Z,58203.96
2022-09-24T05:35:01.383Z,58428.71
2022-09-24T05:36:04.163Z,58668.54
2022-09-24T05:37:07.045Z,58779.93
2022-09-24T05:38:10.235Z,58932.46
2022-09-24T05:39:13.101Z,59109.09
2022-09-24T05:40:16.422Z,59205.43
2022-09-24T05:41:19.139Z,59207.44
2022-09-24T05:42:22.010Z,59434.26
2022-09-24T05:43:25.091Z,59465.37
2022-09-24T05:44:27.970Z,59562.73
2022-09-24T05:45:30.959Z,59646.04
2022-09-24T05:46:33.670Z,59652.06
2022-09-24T05:47:36.489Z,59573.77
2022-09-24T05:48:39.988Z,59712.29
2022-09-24T05:49:43.581Z,59861.85
2022-09-24T05:50:47.260Z,59951.18
2022-09-24T05:51:50.452Z,60099.75
2022-09-24T05:52:53.395Z,60183.07
2022-09-24T05:53:56.613Z,60296.50
2022-09-24T05:54:59.802Z,60412.96
2022-09-24T05:56:03.190Z,60445.08
2022-09-24T05:57:06.515Z,60492.27
2022-09-24T05:58:09.957Z,60578.61
2022-09-24T05:59:17.420Z,60620.77
2022-09-24T06:00:20.208Z,60667.96
2022-09-24T06:01:23.744Z,60733.22
2022-09-24T06:02:28.307Z,60792.45
2022-09-24T06:03:31.458Z,60848.68
2022-09-24T06:04:34.563Z,60847.68
2022-09-24T06:05:37.652Z,60851.69
2022-09-24T06:06:40.933Z,60807.52
2022-09-24T06:07:44.008Z,60834.63
2022-09-24T06:08:46.991Z,60762.34
2022-09-24T06:09:50.594Z,60610.73
2022-09-24T06:10:54.087Z,60600.69
2022-09-24T06:11:57.149Z,60532.43
2022-09-24T06:13:00.128Z,60594.67
2022-09-24T06:14:03.207Z,60648.89
2022-09-24T06:15:06.692Z,60524.39
2022-09-24T06:16:09.766Z,60637.84
2022-09-24T06:17:12.955Z,60637.84
2022-09-24T06:18:16.135Z,60601.70
2022-09-24T06:19:19.220Z,60572.58
2022-09-24T06:20:22.125Z,60594.67
2022-09-24T06:21:24.886Z,60644.87
2022-09-24T06:22:28.971Z,60594.67
2022-09-24T06:23:32.774Z,60510.34
2022-09-24T06:24:36.052Z,60497.29
2022-09-24T06:25:39.860Z,60328.63
2022-09-24T06:26:42.622Z,60297.51
2022-09-24T06:27:46.311Z,60223.22
2022-09-24T06:28:49.589Z,60267.39
2022-09-24T06:29:53.494Z,60313.57
2022-09-24T06:30:56.539Z,60286.47
2022-09-24T06:31:59.512Z,60170.02
2022-09-24T06:33:02.835Z,60158.98
2022-09-24T06:34:05.915Z,60162.99
2022-09-24T06:35:11.272Z,60197.12
2022-09-24T06:36:14.012Z,60085.70
2022-09-24T06:37:17.506Z,60017.44
2022-09-24T06:38:20.380Z,60002.38
2022-09-24T06:39:27.161Z,60116.81
2022-09-24T06:40:37.493Z,60062.61
2022-09-24T06:41:40.073Z,59878.91
2022-09-24T06:42:43.365Z,59768.50
2022-09-24T06:43:46.332Z,59756.45
2022-09-24T06:44:49.724Z,59821.70
2022-09-24T06:45:52.990Z,59751.43
2022-09-24T06:47:03.061Z,59591.84
2022-09-24T06:48:06.066Z,59441.29
2022-09-24T06:49:10.863Z,59447.31
2022-09-24T06:50:14.114Z,59407.16
2022-09-24T06:51:17.708Z,59412.18
2022-09-24T06:52:20.483Z,59247.58
2022-09-24T06:53:24.604Z,59214.46
2022-09-24T06:54:27.596Z,59095.04
2022-09-24T06:55:31.057Z,59046.86
2022-09-24T06:56:34.255Z,58947.51
2022-09-24T06:57:37.317Z,58866.23
2022-09-24T06:58:44.085Z,58751.82
2022-09-24T06:59:47.459Z,58618.36
2022-09-24T07:00:50.547Z,58535.08
2022-09-24T07:01:53.619Z,58437.75
2022-09-24T07:02:56.290Z,58357.47
2022-09-24T07:03:59.420Z,58256.13
2022-09-24T07:05:02.981Z,58174.86
2022-09-24T07:06:06.248Z,58102.62
2022-09-24T07:07:10.250Z,58047.43
2022-09-24T07:08:16.101Z,57984.23
2022-09-24T07:09:19.289Z,58032.39
2022-09-24T07:10:22.487Z,58110.64
2022-09-24T07:11:25.846Z,58133.72
2022-09-24T07:12:28.725Z,58222.02
2022-09-24T07:13:31.808Z,58219.01
2022-09-24T07:14:34.550Z,58283.22
2022-09-24T07:15:38.154Z,58244.09
2022-09-24T07:16:40.924Z,58171.85
2022-09-24T07:17:43.810Z,58009.31
2022-09-24T07:18:51.293Z,57792.60
2022-09-24T07:19:54.481Z,57624.06
2022-09-24T07:20:57.968Z,57045.25
2022-09-24T07:22:02.174Z,56744.34
2022-09-24T07:23:05.063Z,56482.57
2022-09-24T07:24:08.460Z,56334.14
2022-09-24T07:25:11.510Z,56228.84
2022-09-24T07:26:14.860Z,56121.54
2022-09-24T07:27:19.217Z,56016.24
2022-09-24T07:28:22.385Z,55931.00
2022-09-24T07:29:28.450Z,55877.86
2022-09-24T07:30:31.854Z,55754.52
2022-09-24T07:31:40.294Z,55622.16
2022-09-24T07:32:43.345Z,55590.07
2022-09-24T07:33:47.124Z,55541.94
2022-09-24T07:34:50.790Z,55474.76
2022-09-24T07:35:54.149Z,55461.73
2022-09-24T07:36:56.885Z,55412.60
2022-09-24T07:38:00.570Z,55370.48
2022-09-24T07:39:03.692Z,55343.41
2022-09-24T07:40:06.576Z,55336.40
2022-09-24T07:41:22.770Z,55253.18
2022-09-24T07:42:28.742Z,55235.13
2022-09-24T07:43:36.044Z,55231.12
2022-09-24T07:44:39.012Z,55219.09
2022-09-24T07:45:42.277Z,55196.03
2022-09-24T07:46:45.761Z,55124.85
2022-09-24T07:47:49.375Z,55109.81
2022-09-24T07:48:52.662Z,55088.75
2022-09-24T07:49:55.530Z,55102.79
2022-09-24T07:50:58.409Z,55022.59
2022-09-24T07:52:03.421Z,54998.52
2022-09-24T07:53:07.826Z,54969.45
2022-09-24T07:54:16.341Z,54951.41
2022-09-24T07:55:16.250Z,54962.43
2022-09-24T07:56:19.323Z,54924.34
2022-09-24T07:57:22.734Z,54934.36
2022-09-24T07:58:25.278Z,54912.31
2022-09-24T07:59:32.786Z,54899.27
2022-09-24T08:00:36.035Z,54876.21
2022-09-24T08:01:39.560Z,54857.17
2022-09-24T08:02:42.289Z,54833.11
2022-09-24T08:03:45.351Z,54843.13
2022-09-24T08:04:48.572Z,54800.02
2022-09-24T08:05:51.333Z,54834.11
2022-09-24T08:06:54.424Z,54806.04
2022-09-24T08:07:57.904Z,54783.98
2022-09-24T08:09:01.061Z,54788.00
2022-09-24T08:10:04.182Z,54773.96
2022-09-24T08:11:07.575Z,54768.95
2022-09-24T08:12:11.450Z,54749.90
2022-09-24T08:13:14.421Z,54776.97
2022-09-24T08:14:17.628Z,54792.01
2022-09-24T08:15:20.469Z,54767.95
2022-09-24T08:16:23.291Z,54738.87
2022-09-24T08:17:26.776Z,54766.94
2022-09-24T08:18:29.510Z,54733.86
2022-09-24T08:19:33.308Z,54773.96
2022-09-24T08:20:36.288Z,54734.86
2022-09-24T08:21:39.057Z,54754.91
2022-09-24T08:22:42.052Z,54752.91
2022-09-24T08:23:45.952Z,54759.93
2022-09-24T08:24:49.224Z,54746.89
2022-09-24T08:25:52.609Z,54731.86
2022-09-24T08:26:56.194Z,54707.80
2022-09-24T08:27:59.479Z,54717.82
2022-09-24T08:29:02.789Z,54683.74
2022-09-24T08:30:06.069Z,54688.75
2022-09-24T08:31:09.404Z,54701.78
2022-09-24T08:32:12.818Z,54699.78
2022-09-24T08:33:15.369Z,54696.77
2022-09-24T08:34:18.570Z,54712.81
2022-09-24T08:35:21.447Z,54681.73
2022-09-24T08:36:24.333Z,54694.77
2022-09-24T08:37:27.929Z,54685.74
2022-09-24T08:38:30.702Z,54684.74
2022-09-24T08:39:33.774Z,54669.70
2022-09-24T08:40:36.604Z,54656.67
2022-09-24T08:41:40.451Z,54647.65
2022-09-24T08:42:45.679Z,54642.64
2022-09-24T08:43:48.757Z,54624.59
2022-09-24T08:44:51.634Z,54644.64
2022-09-24T08:45:54.909Z,54646.64
2022-09-24T08:46:58.553Z,54650.66
2022-09-24T08:48:01.568Z,54629.61
2022-09-24T08:49:04.462Z,54625.59
2022-09-24T08:50:07.534Z,54599.53
2022-09-24T08:51:10.525Z,54640.63
2022-09-24T08:52:14.010Z,54651.66
2022-09-24T08:53:17.175Z,54587.50
2022-09-24T08:54:20.151Z,54627.60
2022-09-24T08:55:23.143Z,54595.52
2022-09-24T08:56:26.829Z,54619.58
2022-09-24T08:57:30.514Z,54612.56
2022-09-24T08:58:33.808Z,54621.59
2022-09-24T08:59:37.096Z,54595.52
2022-09-24T09:00:39.865Z,54626.60
2022-09-24T09:01:43.057Z,54611.56
2022-09-24T09:02:46.029Z,54637.63
2022-09-24T09:03:49.522Z,54594.52
2022-09-24T09:04:52.498Z,54581.49
2022-09-24T09:05:55.669Z,54576.47
2022-09-24T09:06:59.162Z,54582.49
2022-09-24T09:08:02.780Z,54605.55
2022-09-24T09:09:07.563Z,54611.56
2022-09-24T09:10:10.551Z,54603.54
2022-09-24T09:11:13.640Z,54598.53
2022-09-24T09:12:16.500Z,54569.46
2022-09-24T09:13:20.002Z,54580.48
2022-09-24T09:14:22.864Z,54595.52
2022-09-24T09:15:26.261Z,54585.50
2022-09-24T09:16:29.424Z,54582.49
2022-09-24T09:17:33.126Z,54566.45
2022-09-24T09:18:36.217Z,54573.47
2022-09-24T09:19:40.132Z,54562.44
2022-09-24T09:20:42.805Z,54567.45
2022-09-24T09:21:45.573Z,54568.46
2022-09-24T09:22:48.530Z,54593.52
2022-09-24T09:23:51.843Z,54546.40
2022-09-24T09:24:56.691Z,54572.46
2022-09-24T09:25:59.291Z,54568.46
2022-09-24T09:27:02.514Z,54532.37
2022-09-24T09:28:05.464Z,54558.43
2022-09-24T09:29:08.829Z,54525.35
2022-09-24T09:30:14.213Z,54567.45
2022-09-24T09:31:16.465Z,54537.38
2022-09-24T09:32:19.336Z,54538.38
2022-09-24T09:33:22.093Z,54506.30
2022-09-24T09:34:24.950Z,54495.28
2022-09-24T09:35:28.357Z,54528.36
2022-09-24T09:36:32.042Z,54509.31
2022-09-24T09:37:35.215Z,54514.32
2022-09-24T09:38:38.804Z,54498.29
2022-09-24T09:39:41.705Z,54524.35
2022-09-24T09:40:44.507Z,54495.28
2022-09-24T09:41:47.741Z,54519.34
2022-09-24T09:42:50.830Z,54500.29
2022-09-24T09:43:54.112Z,54505.30
2022-09-24T09:44:57.402Z,54498.29
2022-09-24T09:46:00.901Z,54529.36
2022-09-24T09:47:04.065Z,54493.27
2022-09-24T09:48:07.169Z,54482.25
2022-09-24T09:49:10.638Z,54498.29
2022-09-24T09:50:14.314Z,54521.34
2022-09-24T09:51:21.362Z,54502.29
2022-09-24T09:52:22.442Z,54522.34
2022-09-24T09:53:25.815Z,54461.20
2022-09-24T09:54:28.887Z,54473.23
2022-09-24T09:55:32.909Z,54511.32
2022-09-24T09:56:36.096Z,54500.29
2022-09-24T09:57:38.940Z,54492.27
2022-09-24T09:58:42.331Z,54495.28
2022-09-24T09:59:45.544Z,54450.17
2022-09-24T10:00:48.909Z,54455.18
2022-09-24T10:01:51.938Z,54439.14
2022-09-24T10:02:54.887Z,54489.27
2022-09-24T10:03:58.355Z,54473.23
2022-09-24T10:05:01.635Z,54445.16
2022-09-24T10:06:09.572Z,54467.21
2022-09-24T10:07:12.407Z,54445.16
2022-09-24T10:08:15.482Z,54454.18
2022-09-24T10:09:18.248Z,54470.22
2022-09-24T10:10:21.147Z,54469.21
2022-09-24T10:11:24.766Z,54447.16
2022-09-24T10:12:27.495Z,54460.20
2022-09-24T10:13:30.776Z,54413.08
2022-09-24T10:14:34.058Z,54463.20
2022-09-24T10:15:41.867Z,54418.09
2022-09-24T10:16:41.984Z,54413.08
2022-09-24T10:17:44.733Z,54457.19
2022-09-24T10:18:47.914Z,54420.10
2022-09-24T10:19:50.863Z,54442.15
2022-09-24T10:20:53.862Z,54417.09
2022-09-24T10:21:57.050Z,54425.11
2022-09-24T10:23:00.542Z,54422.10
2022-09-24T10:24:03.728Z,54382.01
2022-09-24T10:25:07.003Z,54437.14
2022-09-24T10:26:10.193Z,54410.07
2022-09-24T10:27:13.466Z,54454.18
2022-09-24T10:28:16.764Z,54432.13
2022-09-24T10:29:19.727Z,54423.11
2022-09-24T10:30:23.445Z,54424.11
2022-09-24T10:31:26.679Z,54436.14
2022-09-24T10:32:29.448Z,54421.10
2022-09-24T10:33:33.493Z,54420.10
2022-09-24T10:34:36.375Z,54422.10
2022-09-24T10:35:39.648Z,54388.02
2022-09-24T10:36:42.510Z,54394.04
2022-09-24T10:37:45.800Z,54420.10
2022-09-24T10:38:49.208Z,54409.07
2022-09-24T10:39:52.465Z,54383.01
2022-09-24T10:40:55.750Z,54409.07
2022-09-24T10:41:59.048Z,54391.03
2022-09-24T10:43:01.810Z,54395.04
2022-09-24T10:44:04.744Z,54415.09
2022-09-24T10:45:08.167Z,54363.96
2022-09-24T10:46:11.356Z,54377.00
2022-09-24T10:47:14.434Z,54343.92
2022-09-24T10:48:17.312Z,54425.11
2022-09-24T10:49:20.081Z,54397.04
2022-09-24T10:50:23.062Z,54364.96
2022-09-24T10:51:29.101Z,54372.98
2022-09-24T10:52:30.851Z,54397.04
2022-09-24T10:53:33.751Z,54366.97
2022-09-24T10:54:36.915Z,54367.97
2022-09-24T10:55:39.785Z,54349.93
2022-09-24T10:56:46.393Z,54391.03
2022-09-24T10:57:47.268Z,54373.99
2022-09-24T10:58:50.150Z,54361.96
2022-09-24T10:59:53.330Z,54343.92
2022-09-24T11:00:56.410Z,54327.88
2022-09-24T11:01:59.640Z,54370.98
2022-09-24T11:03:02.609Z,54372.98
2022-09-24T11:04:05.829Z,54349.93
2022-09-24T11:05:09.341Z,54328.88
2022-09-24T11:06:12.632Z,54338.91
2022-09-24T11:07:15.655Z,54338.91
2022-09-24T11:08:18.902Z,54318.86
2022-09-24T11:09:21.976Z,54341.91
2022-09-24T11:10:25.948Z,54321.86
2022-09-24T11:11:29.153Z,54342.91
2022-09-24T11:12:31.843Z,54326.87
2022-09-24T11:13:35.728Z,54283.77
2022-09-24T11:14:39.016Z,54311.84
2022-09-24T11:15:41.705Z,54307.83
2022-09-24T11:16:46.082Z,54311.84
2022-09-24T11:17:49.168Z,54304.82
2022-09-24T11:18:52.141Z,54317.86
2022-09-24T11:19:55.431Z,54281.77
2022-09-24T11:20:58.817Z,54294.80
2022-09-24T11:22:01.677Z,54304.82
2022-09-24T11:23:05.593Z,54268.74
2022-09-24T11:24:08.662Z,54303.82
2022-09-24T11:25:11.737Z,54270.74
2022-09-24T11:26:14.930Z,54291.79
2022-09-24T11:27:17.910Z,54338.91
2022-09-24T11:28:21.291Z,54272.75
2022-09-24T11:29:24.488Z,54261.72
2022-09-24T11:30:27.552Z,54244.68
2022-09-24T11:31:30.824Z,54274.75
2022-09-24T11:32:33.606Z,54282.77
2022-09-24T11:33:36.650Z,54269.74
2022-09-24T11:34:40.382Z,54254.71
2022-09-24T11:35:43.169Z,54272.75
2022-09-24T11:36:45.970Z,54280.77
2022-09-24T11:37:49.102Z,54220.62
2022-09-24T11:38:52.590Z,54234.66
2022-09-24T11:39:56.093Z,54261.72
2022-09-24T11:40:59.554Z,54258.71
2022-09-24T11:42:02.448Z,54256.71
2022-09-24T11:43:05.419Z,54248.69
2022-09-24T11:44:08.608Z,54250.70
2022-09-24T11:45:11.986Z,54226.64
2022-09-24T11:46:15.136Z,54249.70
2022-09-24T11:47:18.475Z,54278.76
2022-09-24T11:48:21.738Z,54244.68
2022-09-24T11:49:24.819Z,54196.57
2022-09-24T11:50:27.518Z,54222.63
2022-09-24T11:51:30.872Z,54209.60
2022-09-24T11:52:33.753Z,54210.60
2022-09-24T11:53:36.630Z,54246.69
2022-09-24T11:54:39.607Z,54240.67
2022-09-24T11:55:42.582Z,54219.62
2022-09-24T11:56:45.448Z,54222.63
2022-09-24T11:57:48.330Z,54217.62
2022-09-24T11:58:51.208Z,54232.65
2022-09-24T11:59:53.979Z,54196.57
2022-09-24T12:00:56.760Z,54256.71
2022-09-24T12:01:59.902Z,54219.62
2022-09-24T12:03:02.740Z,54214.61
2022-09-24T12:04:05.510Z,54217.62
2022-09-24T12:05:08.257Z,54208.60
2022-09-24T12:06:11.222Z,54202.58
2022-09-24T12:07:14.101Z,54217.62
2022-09-24T12:08:17.284Z,54215.61
2022-09-24T12:09:20.149Z,54222.63
2022-09-24T12:10:23.194Z,54205.59
2022-09-24T12:11:26.127Z,54216.62
2022-09-24T12:12:29.188Z,54187.55
2022-09-24T12:13:32.266Z,54224.64
2022-09-24T12:14:35.046Z,54216.62
2022-09-24T12:15:37.909Z,54226.64
2022-09-24T12:16:40.889Z,54192.56
2022-09-24T12:17:44.277Z,54191.56
2022-09-24T12:18:47.152Z,54172.51
2022-09-24T12:19:50.231Z,54216.62
2022-09-24T12:20:53.413Z,54208.60
2022-09-24T12:21:56.589Z,54203.59
2022-09-24T12:22:59.671Z,54218.62
2022-09-24T12:24:03.441Z,54235.66
2022-09-24T12:25:06.343Z,54228.64
2022-09-24T12:26:09.422Z,54194.57
2022-09-24T12:27:12.408Z,54220.62
2022-09-24T12:28:15.579Z,54228.64
2022-09-24T12:29:18.564Z,54216.62
2022-09-24T12:30:21.869Z,54236.66
2022-09-24T12:31:25.314Z,54250.70